createdAt,value
2022-11-13T00:00:06.349Z,17.73
2022-11-13T00:02:52.360Z,22.83
2022-11-13T00:05:38.256Z,21.58
2022-11-13T00:08:24.120Z,22.73
2022-11-13T00:11:15.100Z,22.90
2022-11-13T00:16:47.061Z,17.83
2022-11-13T00:19:32.673Z,17.90
2022-11-13T00:22:18.309Z,20.25
2022-11-13T00:25:04.260Z,20.88
2022-11-13T00:27:50.070Z,23.05
2022-11-13T00:30:36.163Z,20.02
2022-11-13T00:33:45.205Z,20.92
2022-11-13T00:36:29.163Z,18.02
2022-11-13T00:39:15.022Z,17.42
2022-11-13T00:42:00.819Z,18.23
2022-11-13T00:44:46.650Z,18.90
2022-11-13T00:47:32.472Z,20.33
2022-11-13T00:50:18.806Z,16.30
2022-11-13T00:53:04.731Z,21.15
2022-11-13T00:55:51.407Z,19.05
2022-11-13T00:58:36.939Z,15.27
2022-11-13T01:01:23.790Z,16.95
2022-11-13T01:04:09.437Z,14.27
2022-11-13T01:06:55.739Z,15.63
2022-11-13T01:09:41.597Z,17.80
2022-11-13T01:12:27.255Z,18.52
2022-11-13T01:15:13.016Z,19.05
2022-11-13T01:17:58.917Z,18.55
2022-11-13T01:20:45.668Z,20.45
2022-11-13T01:23:31.707Z,25.45
2022-11-13T01:26:25.384Z,17.43
2022-11-13T01:29:12.652Z,19.10
2022-11-13T01:31:58.745Z,19.45
2022-11-13T01:34:44.234Z,19.77
2022-11-13T01:37:29.920Z,22.42
2022-11-13T01:40:15.969Z,17.20
2022-11-13T01:43:30.502Z,18.90
2022-11-13T01:46:40.421Z,20.07
2022-11-13T01:49:36.540Z,21.30
2022-11-13T01:52:29.947Z,22.30
2022-11-13T01:55:19.203Z,20.33
2022-11-13T01:58:07.584Z,27.77
2022-11-13T02:00:53.423Z,18.70
2022-11-13T02:03:39.141Z,27.83
2022-11-13T02:06:28.358Z,22.20
2022-11-13T02:09:16.197Z,22.20
2022-11-13T02:12:02.808Z,19.53
2022-11-13T02:14:54.057Z,21.33
2022-11-13T02:17:57.096Z,17.52
2022-11-13T02:21:22.470Z,17.73
2022-11-13T02:24:54.950Z,19.67
2022-11-13T02:27:45.509Z,20.30
2022-11-13T02:30:34.900Z,19.33
2022-11-13T02:33:32.945Z,22.50
2022-11-13T02:36:21.231Z,20.17
2022-11-13T02:39:11.804Z,24.77
2022-11-13T02:41:57.459Z,17.83
2022-11-13T02:44:43.318Z,24.47
2022-11-13T02:47:29.648Z,23.87
2022-11-13T02:50:16.540Z,22.10
2022-11-13T02:53:03.160Z,20.90
2022-11-13T02:55:48.998Z,23.17
2022-11-13T02:58:34.927Z,25.30
2022-11-13T03:01:21.013Z,27.33
2022-11-13T03:04:06.813Z,27.90
2022-11-13T03:06:52.471Z,28.53
2022-11-13T03:09:38.867Z,30.65
2022-11-13T03:12:24.567Z,24.27
2022-11-13T03:15:11.212Z,20.87
2022-11-13T03:17:56.879Z,24.73
2022-11-13T03:20:44.342Z,26.13
2022-11-13T03:23:30.098Z,25.00
2022-11-13T03:26:17.540Z,31.17
2022-11-13T03:29:03.450Z,41.43
2022-11-13T03:31:49.516Z,66.30
2022-11-13T03:34:35.242Z,50.97
2022-11-13T03:37:21.345Z,46.93
2022-11-13T03:40:08.276Z,49.83
2022-11-13T03:42:54.323Z,47.07
2022-11-13T03:45:40.413Z,55.13
2022-11-13T03:48:26.937Z,48.33
2022-11-13T03:51:13.067Z,55.47
2022-11-13T03:54:00.359Z,55.43
2022-11-13T03:56:46.212Z,48.58
2022-11-13T03:59:32.087Z,47.08
2022-11-13T04:02:18.336Z,48.00
2022-11-13T04:05:04.816Z,40.47
2022-11-13T04:07:51.332Z,51.53
2022-11-13T04:10:36.910Z,47.70
2022-11-13T04:13:22.847Z,42.03
2022-11-13T04:16:08.998Z,49.60
2022-11-13T04:18:57.966Z,43.67
2022-11-13T04:21:43.583Z,46.70
2022-11-13T04:24:29.525Z,36.23
2022-11-13T04:27:15.188Z,46.47
2022-11-13T04:30:00.762Z,47.60
2022-11-13T04:32:46.744Z,47.17
2022-11-13T04:35:35.740Z,49.27
2022-11-13T04:38:21.822Z,46.47
2022-11-13T04:41:27.151Z,49.10
2022-11-13T04:44:14.077Z,43.53
2022-11-13T04:47:00.277Z,49.80
2022-11-13T04:49:46.403Z,43.10
2022-11-13T04:52:36.309Z,43.30
2022-11-13T04:55:22.412Z,38.85
2022-11-13T04:58:08.093Z,49.30
2022-11-13T05:00:54.178Z,45.17
2022-11-13T05:03:40.331Z,46.87
2022-11-13T05:06:26.202Z,40.70
2022-11-13T05:09:11.999Z,38.30
2022-11-13T05:11:57.476Z,51.50
2022-11-13T05:14:43.538Z,36.93
2022-11-13T05:17:29.173Z,31.23
2022-11-13T05:20:15.364Z,32.90
2022-11-13T05:23:01.245Z,27.93
2022-11-13T05:25:46.732Z,29.63
2022-11-13T05:28:33.300Z,31.73
2022-11-13T05:31:19.371Z,27.90
2022-11-13T05:34:06.309Z,24.10
2022-11-13T05:36:52.002Z,38.93
2022-11-13T05:39:37.835Z,28.60
2022-11-13T05:42:23.318Z,34.97
2022-11-13T05:45:10.082Z,29.47
2022-11-13T05:47:55.665Z,29.87
2022-11-13T05:50:41.214Z,32.03
2022-11-13T05:53:28.231Z,29.43
2022-11-13T05:56:18.526Z,28.87
2022-11-13T05:59:05.253Z,27.13
2022-11-13T06:01:51.108Z,31.00
2022-11-13T06:04:37.182Z,31.97
2022-11-13T06:07:23.236Z,25.92
2022-11-13T06:10:09.670Z,23.80
2022-11-13T06:12:56.033Z,25.23
2022-11-13T06:15:42.053Z,32.03
2022-11-13T06:18:29.324Z,26.73
2022-11-13T06:21:20.944Z,24.27
2022-11-13T06:24:08.531Z,29.95
2022-11-13T06:26:54.364Z,32.30
2022-11-13T06:29:40.137Z,29.35
2022-11-13T06:32:25.496Z,27.23
2022-11-13T06:35:11.137Z,26.88
2022-11-13T06:37:57.074Z,27.95
2022-11-13T06:40:42.837Z,23.63
2022-11-13T06:43:30.064Z,33.75
2022-11-13T06:46:19.626Z,40.60
2022-11-13T06:49:05.225Z,42.13
2022-11-13T06:51:51.274Z,46.95
2022-11-13T06:54:37.538Z,34.58
2022-11-13T06:57:23.347Z,36.67
2022-11-13T07:00:10.273Z,40.60
2022-11-13T07:02:56.450Z,51.80
2022-11-13T07:05:42.438Z,42.60
2022-11-13T07:08:28.191Z,42.22
2022-11-13T07:11:18.267Z,37.78
2022-11-13T07:17:08.550Z,35.78
2022-11-13T07:19:55.576Z,35.75
2022-11-13T07:22:41.020Z,27.63
2022-11-13T07:25:28.666Z,28.73
2022-11-13T07:28:14.643Z,26.63
2022-11-13T07:31:01.188Z,18.75
2022-11-13T07:33:50.120Z,19.13
2022-11-13T07:36:35.937Z,17.70
2022-11-13T07:39:21.902Z,15.82
2022-11-13T07:42:07.639Z,11.85
2022-11-13T07:44:54.844Z,13.52
2022-11-13T07:47:41.882Z,17.10
2022-11-13T07:50:30.035Z,16.55
2022-11-13T07:53:16.355Z,20.80
2022-11-13T07:56:03.872Z,16.92
2022-11-13T07:58:50.302Z,13.80
2022-11-13T08:01:36.474Z,20.15
2022-11-13T08:04:22.502Z,14.27
2022-11-13T08:07:11.077Z,16.20
2022-11-13T08:09:56.945Z,15.38
2022-11-13T08:12:44.212Z,14.77
2022-11-13T08:15:31.355Z,17.48
2022-11-13T08:18:17.509Z,14.90
2022-11-13T08:21:10.518Z,16.65
2022-11-13T08:23:59.669Z,18.08
2022-11-13T08:26:45.511Z,21.52
2022-11-13T08:29:31.735Z,18.92
2022-11-13T08:32:19.431Z,16.67
2022-11-13T08:35:06.291Z,17.88
2022-11-13T08:37:52.153Z,18.13
2022-11-13T08:40:38.018Z,17.60
2022-11-13T08:43:24.121Z,18.45
2022-11-13T08:46:09.794Z,19.45
2022-11-13T08:48:56.136Z,23.55
2022-11-13T08:51:41.894Z,19.60
2022-11-13T08:54:28.089Z,19.10
2022-11-13T08:57:13.699Z,19.02
2022-11-13T08:59:59.523Z,23.42
2022-11-13T09:02:45.678Z,22.20
2022-11-13T09:05:31.779Z,21.10
2022-11-13T09:08:17.631Z,26.40
2022-11-13T09:11:07.180Z,19.13
2022-11-13T09:13:53.722Z,20.85
2022-11-13T09:16:39.474Z,17.55
2022-11-13T09:19:25.644Z,18.60
2022-11-13T09:22:12.228Z,19.20
2022-11-13T09:24:58.099Z,20.38
2022-11-13T09:27:44.129Z,19.42
2022-11-13T09:30:30.957Z,19.42
2022-11-13T09:33:17.247Z,17.13
2022-11-13T09:36:03.744Z,21.98
2022-11-13T09:38:50.886Z,17.20
2022-11-13T09:42:20.771Z,18.52
2022-11-13T09:45:13.942Z,19.02
2022-11-13T09:48:24.579Z,25.25
2022-11-13T09:51:28.515Z,20.88
2022-11-13T09:54:15.305Z,15.05
2022-11-13T09:57:56.008Z,20.02
2022-11-13T10:00:42.035Z,18.02
2022-11-13T10:04:03.447Z,18.27
2022-11-13T10:07:05.907Z,17.67
2022-11-13T10:10:20.607Z,16.65
2022-11-13T10:13:11.644Z,15.52
2022-11-13T10:16:14.537Z,16.05
2022-11-13T10:19:30.126Z,15.55
2022-11-13T10:22:57.988Z,17.23
2022-11-13T10:25:45.376Z,15.05
2022-11-13T10:31:52.401Z,15.10
2022-11-13T10:34:38.788Z,17.00
2022-11-13T10:37:52.444Z,16.40
2022-11-13T10:40:40.876Z,17.08
2022-11-13T10:43:27.772Z,16.38
2022-11-13T10:46:26.726Z,16.05
2022-11-13T10:49:29.231Z,15.43
2022-11-13T10:52:30.714Z,15.77
2022-11-13T10:55:35.774Z,20.98
2022-11-13T10:58:21.899Z,13.23
2022-11-13T11:01:22.924Z,15.02
2022-11-13T11:04:30.138Z,13.65
2022-11-13T11:07:21.012Z,11.00
2022-11-13T11:10:57.696Z,7.78
2022-11-13T11:13:44.396Z,6.88
2022-11-13T11:16:31.172Z,9.77
2022-11-13T11:19:19.939Z,8.13
2022-11-13T11:22:19.775Z,12.20
2022-11-13T11:25:25.723Z,10.82
2022-11-13T11:28:31.704Z,14.50
2022-11-13T11:31:44.813Z,10.93
2022-11-13T11:34:54.954Z,15.55
2022-11-13T11:38:21.864Z,10.10
2022-11-13T11:41:17.680Z,10.55
2022-11-13T11:44:33.428Z,10.40
2022-11-13T11:47:19.527Z,10.05
2022-11-13T11:50:13.614Z,9.95
2022-11-13T11:53:13.301Z,11.02
2022-11-13T11:56:18.282Z,10.75
2022-11-13T11:59:14.411Z,9.45
2022-11-13T12:02:53.022Z,12.95
2022-11-13T12:06:14.943Z,11.48
2022-11-13T12:09:30.890Z,12.32
2022-11-13T12:12:41.476Z,14.43
2022-11-13T12:18:53.647Z,16.35
2022-11-13T12:22:04.625Z,19.17
2022-11-13T12:25:12.405Z,19.25
2022-11-13T12:28:20.993Z,16.13
2022-11-13T12:31:16.254Z,20.23
2022-11-13T12:34:15.644Z,21.88
2022-11-13T12:37:10.315Z,24.90
2022-11-13T12:40:15.617Z,30.58
2022-11-13T12:43:45.007Z,29.67
2022-11-13T12:46:40.349Z,35.70
2022-11-13T12:49:37.064Z,31.98
2022-11-13T12:52:24.574Z,34.83
2022-11-13T12:55:30.781Z,32.67
2022-11-13T12:58:34.953Z,35.03
2022-11-13T13:01:22.826Z,33.17
2022-11-13T13:04:44.666Z,35.25
2022-11-13T13:08:27.476Z,31.60
2022-11-13T13:11:57.309Z,31.17
2022-11-13T13:15:19.284Z,33.88
2022-11-13T13:18:17.977Z,33.53
2022-11-13T13:21:16.057Z,32.35
2022-11-13T13:24:27.559Z,31.85
2022-11-13T13:27:30.894Z,33.05
2022-11-13T13:30:26.242Z,30.10
2022-11-13T13:33:25.431Z,31.20
2022-11-13T13:36:37.858Z,30.42
2022-11-13T13:39:52.461Z,31.27
2022-11-13T13:43:09.716Z,35.35
2022-11-13T13:46:22.654Z,31.85
2022-11-13T13:49:17.970Z,37.42
2022-11-13T13:52:05.454Z,31.02
2022-11-13T13:54:51.567Z,35.20
2022-11-13T13:57:42.265Z,31.63
2022-11-13T14:00:28.786Z,39.42
2022-11-13T14:03:20.996Z,44.58
2022-11-13T14:06:11.038Z,45.08
2022-11-13T14:09:09.737Z,42.67
2022-11-13T14:12:09.873Z,49.10
2022-11-13T14:14:56.104Z,46.28
2022-11-13T14:17:41.619Z,42.25
2022-11-13T14:20:28.284Z,45.10
2022-11-13T14:23:22.519Z,47.42
2022-11-13T14:26:12.047Z,42.53
2022-11-13T14:29:02.976Z,51.50
2022-11-13T14:31:49.364Z,50.38
2022-11-13T14:34:36.934Z,49.20
2022-11-13T14:37:39.429Z,49.22
2022-11-13T14:40:26.006Z,48.67
2022-11-13T14:43:27.714Z,47.22
2022-11-13T14:46:37.091Z,49.95
2022-11-13T14:49:36.036Z,47.75
2022-11-13T14:52:28.009Z,49.63
2022-11-13T14:55:34.388Z,55.30
2022-11-13T14:58:36.391Z,55.08
2022-11-13T15:01:25.121Z,49.40
2022-11-13T15:04:11.226Z,43.55
2022-11-13T15:07:03.835Z,53.10
2022-11-13T15:09:50.319Z,54.70
2022-11-13T15:12:36.196Z,50.53
2022-11-13T15:15:28.322Z,53.85
2022-11-13T15:18:19.420Z,48.05
2022-11-13T15:21:05.470Z,53.53
2022-11-13T15:23:51.148Z,54.92
2022-11-13T15:26:37.834Z,55.65
2022-11-13T15:29:23.598Z,54.55
2022-11-13T15:32:14.831Z,56.38
2022-11-13T15:35:00.795Z,63.10
2022-11-13T15:37:46.684Z,61.65
2022-11-13T15:40:32.476Z,56.78
2022-11-13T15:43:22.916Z,57.03
2022-11-13T15:46:18.027Z,65.82
2022-11-13T15:49:03.846Z,177.35
2022-11-13T15:51:50.012Z,336.60
2022-11-13T15:54:38.389Z,142.48
2022-11-13T15:57:27.898Z,124.43
2022-11-13T16:00:21.440Z,86.97
2022-11-13T16:03:11.831Z,83.70
2022-11-13T16:05:59.808Z,81.25
2022-11-13T16:08:46.004Z,80.35
2022-11-13T16:11:34.516Z,69.28
2022-11-13T16:14:24.495Z,68.22
2022-11-13T16:17:20.215Z,74.03
2022-11-13T16:20:07.960Z,63.88
2022-11-13T16:22:53.761Z,82.40
2022-11-13T16:25:39.448Z,78.82
2022-11-13T16:28:25.576Z,80.10
2022-11-13T16:31:12.446Z,84.03
2022-11-13T16:33:58.401Z,87.68
2022-11-13T16:36:44.699Z,102.03
2022-11-13T16:39:30.378Z,87.28
2022-11-13T16:42:17.634Z,86.50
2022-11-13T16:45:03.803Z,85.40
2022-11-13T16:47:50.857Z,73.25
2022-11-13T16:50:39.592Z,72.60
2022-11-13T16:53:25.950Z,75.35
2022-11-13T16:56:20.863Z,87.57
2022-11-13T16:59:06.728Z,101.88
2022-11-13T17:01:56.118Z,93.45
2022-11-13T17:04:44.008Z,71.03
2022-11-13T17:07:30.045Z,87.85
2022-11-13T17:10:36.071Z,91.97
2022-11-13T17:13:22.088Z,99.43
2022-11-13T17:16:11.618Z,94.93
2022-11-13T17:18:59.328Z,92.18
2022-11-13T17:21:45.554Z,87.30
2022-11-13T17:24:31.490Z,81.47
2022-11-13T17:27:18.012Z,90.63
2022-11-13T17:30:05.007Z,100.30
2022-11-13T17:32:50.967Z,94.78
2022-11-13T17:35:36.724Z,94.57
2022-11-13T17:38:22.778Z,92.63
2022-11-13T17:41:12.086Z,80.80
2022-11-13T17:44:01.301Z,85.03
2022-11-13T17:46:48.596Z,87.70
2022-11-13T17:49:34.616Z,81.60
2022-11-13T17:52:20.473Z,76.30
2022-11-13T17:55:07.729Z,78.93
2022-11-13T17:57:53.631Z,87.22
2022-11-13T18:00:39.530Z,87.22
2022-11-13T18:03:25.502Z,92.43
2022-11-13T18:06:19.720Z,98.07
2022-11-13T18:09:06.718Z,82.05
2022-11-13T18:11:52.674Z,81.80
2022-11-13T18:14:38.619Z,97.47
2022-11-13T18:17:25.064Z,87.55
2022-11-13T18:20:11.298Z,87.88
2022-11-13T18:22:57.572Z,92.10
2022-11-13T18:25:43.723Z,83.15
2022-11-13T18:28:29.720Z,85.38
2022-11-13T18:31:18.581Z,92.65
2022-11-13T18:34:06.765Z,83.38
2022-11-13T18:36:52.977Z,77.80
2022-11-13T18:39:38.990Z,102.97
2022-11-13T18:42:25.398Z,111.22
2022-11-13T18:45:11.952Z,109.07
2022-11-13T18:47:58.128Z,97.05
2022-11-13T18:50:55.314Z,110.22
2022-11-13T18:53:41.982Z,108.93
2022-11-13T18:56:31.686Z,128.55
2022-11-13T18:59:17.729Z,135.55
2022-11-13T19:02:03.741Z,193.10
2022-11-13T19:04:49.881Z,110.75
2022-11-13T19:07:35.747Z,105.40
2022-11-13T19:10:21.653Z,114.63
2022-11-13T19:13:09.025Z,126.45
2022-11-13T19:15:55.757Z,122.50
2022-11-13T19:18:44.749Z,116.50
2022-11-13T19:21:32.819Z,114.78
2022-11-13T19:24:18.682Z,111.68
2022-11-13T19:27:04.926Z,112.13
2022-11-13T19:29:50.447Z,123.85
2022-11-13T19:32:35.909Z,151.65
2022-11-13T19:35:21.724Z,137.90
2022-11-13T19:38:08.576Z,155.90
2022-11-13T19:40:54.557Z,150.40
2022-11-13T19:43:42.573Z,130.45
2022-11-13T19:46:32.100Z,139.40
2022-11-13T19:49:17.924Z,126.55
2022-11-13T19:52:04.010Z,124.50
2022-11-13T19:54:49.839Z,118.22
2022-11-13T19:57:35.672Z,137.43
2022-11-13T20:00:21.793Z,125.82
2022-11-13T20:03:07.992Z,128.05
2022-11-13T20:05:59.486Z,123.97
2022-11-13T20:08:45.718Z,145.50
2022-11-13T20:11:32.502Z,149.52
2022-11-13T20:14:18.484Z,115.93
2022-11-13T20:17:04.483Z,110.82
2022-11-13T20:19:50.522Z,108.70
2022-11-13T20:22:36.464Z,110.85
2022-11-13T20:25:23.030Z,134.70
2022-11-13T20:28:08.733Z,129.00
2022-11-13T20:31:16.503Z,118.03
2022-11-13T20:34:02.549Z,132.25
2022-11-13T20:36:49.697Z,124.10
2022-11-13T20:39:35.514Z,103.68
2022-11-13T20:42:21.051Z,99.72
2022-11-13T20:45:07.508Z,114.82
2022-11-13T20:47:53.393Z,120.57
2022-11-13T20:50:39.065Z,121.75
2022-11-13T20:53:24.856Z,108.18
2022-11-13T20:56:10.960Z,110.10
2022-11-13T20:58:57.413Z,130.82
2022-11-13T21:01:43.522Z,107.13
2022-11-13T21:04:29.491Z,102.90
2022-11-13T21:07:15.161Z,100.70
2022-11-13T21:10:02.201Z,104.53
2022-11-13T21:12:47.735Z,109.10
2022-11-13T21:15:37.004Z,107.63
2022-11-13T21:18:23.104Z,101.45
2022-11-13T21:21:16.420Z,100.15
2022-11-13T21:24:02.472Z,104.00
2022-11-13T21:26:51.782Z,101.63
2022-11-13T21:29:37.516Z,95.95
2022-11-13T21:32:23.401Z,104.82
2022-11-13T21:35:09.212Z,110.63
2022-11-13T21:37:55.709Z,98.60
2022-11-13T21:40:41.739Z,74.65
2022-11-13T21:43:27.806Z,95.55
2022-11-13T21:46:14.514Z,110.47
2022-11-13T21:49:04.912Z,85.93
2022-11-13T21:51:50.753Z,81.22
2022-11-13T21:54:36.548Z,90.60
2022-11-13T21:57:24.140Z,98.22
2022-11-13T22:00:10.744Z,85.68
2022-11-13T22:02:56.810Z,82.57
2022-11-13T22:05:42.979Z,75.30
2022-11-13T22:08:28.886Z,88.27
2022-11-13T22:11:15.394Z,108.60
2022-11-13T22:14:02.294Z,76.03
2022-11-13T22:16:48.758Z,74.13
2022-11-13T22:19:36.405Z,85.88
2022-11-13T22:22:22.331Z,106.53
2022-11-13T22:25:08.500Z,84.95
2022-11-13T22:27:54.316Z,90.40
2022-11-13T22:30:39.948Z,102.35
2022-11-13T22:33:31.292Z,80.50
2022-11-13T22:36:20.450Z,86.78
2022-11-13T22:39:06.640Z,93.63
2022-11-13T22:41:52.426Z,95.00
2022-11-13T22:44:54.767Z,85.13
2022-11-13T22:47:42.497Z,120.33
2022-11-13T22:50:28.078Z,91.18
2022-11-13T22:53:14.747Z,98.53
2022-11-13T22:56:13.842Z,109.47
2022-11-13T22:59:02.061Z,88.90
2022-11-13T23:01:48.053Z,90.65
2022-11-13T23:04:34.109Z,94.53
2022-11-13T23:07:20.154Z,78.53
2022-11-13T23:10:07.120Z,80.88
2022-11-13T23:12:52.794Z,90.45
2022-11-13T23:15:38.417Z,82.00
2022-11-13T23:18:24.068Z,79.05
2022-11-13T23:21:12.105Z,80.80
2022-11-13T23:23:58.771Z,75.82
2022-11-13T23:26:44.564Z,78.93
2022-11-13T23:29:30.668Z,78.45
2022-11-13T23:32:16.477Z,81.33
2022-11-13T23:35:02.770Z,73.80
2022-11-13T23:37:48.473Z,74.07
2022-11-13T23:40:35.675Z,95.35
2022-11-13T23:43:22.289Z,77.13
2022-11-13T23:46:07.943Z,96.93
2022-11-13T23:48:53.485Z,93.17
2022-11-13T23:51:39.594Z,82.45
2022-11-13T23:54:26.684Z,104.05
2022-11-13T23:57:12.780Z,93.78
2022-11-13T23:59:58.530Z,84.13
